Orbital elements of COSMOS 1275 DEB
| Launched | 3 June 1981 |
| Flight ended | – |
| Launch site | Plesetsk Missile and Space Complex, Russia |
| Owner | Commonwealth of Independent States (former USSR) |
| NORAD ID | 13817 |
| Date fetched |
Epoch osculation |
Inc. [°] |
Ecc. | RA asc node [hr] |
Arg Peri. [°] |
Mean anom [°] |
Mean motion [rev/day] |
Abs. mag |
| Date fetched |
Epoch osculation |
Inc. [°] |
Ecc. | RA asc node [hr] |
Arg Peri. [°] |
Mean anom [°] |
Mean motion [rev/day] |
Abs. mag |
| 2026 May 08 17:57 | 2026 May 05 12:03:32 | 82.9391 | 0.00218 | 20.7151 | 126.4070 | 233.9121 | 14.07800 | – |
| 2026 May 07 17:58 | 2026 May 05 12:03:32 | 82.9391 | 0.00218 | 20.7151 | 126.4070 | 233.9121 | 14.07800 | – |
| 2026 May 06 17:57 | 2026 May 05 12:03:32 | 82.9391 | 0.00218 | 20.7151 | 126.4070 | 233.9121 | 14.07800 | – |
| 2026 May 05 17:57 | 2026 May 05 12:03:32 | 82.9391 | 0.00218 | 20.7151 | 126.4070 | 233.9121 | 14.07800 | – |
| 2026 May 04 17:57 | 2026 Apr 30 14:21:34 | 82.9395 | 0.00213 | 20.9712 | 140.0125 | 233.9121 | 14.07800 | – |
| 2026 May 03 17:57 | 2026 Apr 30 14:21:34 | 82.9395 | 0.00213 | 20.9712 | 140.0125 | 233.9121 | 14.07800 | – |
| 2026 May 02 17:57 | 2026 Apr 30 14:21:34 | 82.9395 | 0.00213 | 20.9712 | 140.0125 | 233.9121 | 14.07800 | – |
| 2026 May 01 17:56 | 2026 Apr 30 14:21:34 | 82.9395 | 0.00213 | 20.9712 | 140.0125 | 233.9121 | 14.07800 | – |
| 2026 Apr 30 17:56 | 2026 Apr 30 14:21:34 | 82.9395 | 0.00213 | 20.9712 | 140.0125 | 233.9121 | 14.07800 | – |
| 2026 Apr 29 17:57 | 2026 Apr 23 23:43:08 | 82.9403 | 0.00206 | 21.3162 | 159.0980 | 233.9121 | 14.07800 | – |
| 2026 Apr 28 17:56 | 2026 Apr 23 23:43:08 | 82.9403 | 0.00206 | 21.3162 | 159.0980 | 233.9121 | 14.07800 | – |
| 2026 Apr 27 17:58 | 2026 Apr 23 23:43:08 | 82.9403 | 0.00206 | 21.3162 | 159.0980 | 233.9121 | 14.07800 | – |
| 2026 Apr 26 17:58 | 2026 Apr 23 23:43:08 | 82.9403 | 0.00206 | 21.3162 | 159.0980 | 233.9121 | 14.07800 | – |
| 2026 Apr 25 17:58 | 2026 Apr 23 23:43:08 | 82.9403 | 0.00206 | 21.3162 | 159.0980 | 233.9121 | 14.07800 | – |
| 2026 Apr 24 17:59 | 2026 Apr 23 23:43:08 | 82.9403 | 0.00206 | 21.3162 | 159.0980 | 233.9121 | 14.07800 | – |
| 2026 Apr 23 17:57 | 2026 Apr 19 00:18:39 | 82.9409 | 0.00200 | 21.5759 | 174.1953 | 233.9121 | 14.07800 | – |
| 2026 Apr 22 17:57 | 2026 Apr 19 00:18:39 | 82.9409 | 0.00200 | 21.5759 | 174.1953 | 233.9121 | 14.07800 | – |
| 2026 Apr 21 17:57 | 2026 Apr 19 00:18:39 | 82.9409 | 0.00200 | 21.5759 | 174.1953 | 233.9121 | 14.07800 | – |
| 2026 Apr 20 17:57 | 2026 Apr 19 00:18:39 | 82.9409 | 0.00200 | 21.5759 | 174.1953 | 233.9121 | 14.07800 | – |
| 2026 Apr 19 17:58 | 2026 Apr 19 00:18:39 | 82.9409 | 0.00200 | 21.5759 | 174.1953 | 233.9121 | 14.07800 | – |
| 2026 Apr 18 17:56 | 2026 Apr 13 01:01:13 | 82.9419 | 0.00194 | 21.8875 | 193.0770 | 233.9121 | 14.07800 | – |
| 2026 Apr 16 17:57 | 2026 Apr 13 01:01:13 | 82.9419 | 0.00194 | 21.8875 | 193.0770 | 233.9121 | 14.07800 | – |
| 2026 Apr 14 17:57 | 2026 Apr 13 01:01:13 | 82.9419 | 0.00194 | 21.8875 | 193.0770 | 233.9121 | 14.07800 | – |
| 2026 Apr 13 17:57 | 2026 Apr 13 01:01:13 | 82.9419 | 0.00194 | 21.8875 | 193.0770 | 233.9121 | 14.07800 | – |
| 2026 Apr 12 17:57 | 2026 Apr 08 01:36:38 | 82.9426 | 0.00191 | 22.1471 | 209.2531 | 233.9121 | 14.07800 | – |
| 2026 Apr 11 17:57 | 2026 Apr 08 01:36:38 | 82.9426 | 0.00191 | 22.1471 | 209.2531 | 233.9121 | 14.07800 | – |